Etusivu
METAR-TAF:

METAR-TAF

Lentoasemat :

Odense, Tanska

Leveyspiiri: 55-29N, Pituuspiiri: 010-20E, korkeus merenpinnasta: 17 m

Tämänhetkinen sää

Tämä raportti tehtiin 42 minuuttia sitten, kello 10.20 UTC
Tuuli 14 kn etelästä
Lämpötila 6°C
Kosteus 93%
Ilmanpaine 999 hPa
Näkyvyys 10 km tai enemmän
Muutamia pilviä 1800 ft:n korkeudessa
Hajanaisia pilviä 2300 ft:n korkeudessa
Hajonneita pilviä 3800 ft:n korkeudessa

METAR: EKOD 121020Z 18014KT 9999 FEW018 SCT023 BKN038 06/05 Q0999

Aika: 12:02 (11:02 UTC)

Sääennuste

Tämä raportti tehtiin 2 tuntia ja 5 minuuttia sitten, kello 08.57 UTC
Ennuste voimassa 12. päivästä klo 09 UTC - 12. päivään klo 16 UTC
Tuuli 12 kn etelästä
Näkyvyys 10 km tai enemmän
Hajonneita pilviä 2000 ft:n korkeudessa

TAF: EKOD 120857Z 1209/1216 19012KT 9999 BKN020

Säähavainnot ja -ennusteet yli 4000 lentoasemalta (METAR- ja TAF-raportit).

Käytössä olevat sääasemat on merkitty karttaan keltaisilla ja punaisilla pisteillä.

Aseta hiiri pisteen päälle nähdäksesi sääaseman nimen.

Klikkaa sitten nähdäksesi säähavainnot ja -ennusteet.

Kartan vaihtaminen: klikkaa mustalla rastilla varustettuja vihreitä pisteitä, niin voit zoomata sisään; viivalla varustettua vihreää pistettä, niin voit zoomata ulos tai vihreitä nuolia, niin pääset viereisille kartoille.


METAR-TAF: